Time;durP1;ratioP1;P1;durP2;ratioP2;P2;SDS_P1;SDS_P2;PMS_P1;PMS_P2;Temp;Humidity;BMP_temperature;BMP_pressure;BME280_temperature;BME280_humidity;BME280_pressure;Samples;Min_cycle;Max_cycle;Signal;HPM_P1;HPM_P2
2022/05/10 00:01:51;;;;;;;13.83;12.50;;;11.90;99.90;;;;;;4915339;29;20212;-71
2022/05/10 00:04:17;;;;;;;14.00;12.50;;;11.90;99.90;;;;;;4915277;29;20296;-71
2022/05/10 00:06:45;;;;;;;14.03;12.63;;;11.90;99.90;;;;;;4915538;29;20429;-71
2022/05/10 00:09:12;;;;;;;15.53;12.60;;;11.90;99.90;;;;;;4915227;29;20425;-71
2022/05/10 00:11:38;;;;;;;13.87;12.50;;;11.90;99.90;;;;;;4915165;29;20434;-73
2022/05/10 00:14:04;;;;;;;13.77;12.40;;;11.80;99.90;;;;;;4915352;29;20414;-71
2022/05/10 00:16:33;;;;;;;12.80;11.40;;;11.80;99.90;;;;;;4915742;29;21026;-71
2022/05/10 00:18:58;;;;;;;14.60;13.10;;;11.80;99.90;;;;;;4915385;29;20486;-75
2022/05/10 00:21:25;;;;;;;24.63;12.83;;;11.70;99.90;;;;;;4914831;29;20946;-73
2022/05/10 00:23:51;;;;;;;15.07;12.60;;;11.70;99.90;;;;;;4915337;29;20197;-73
2022/05/10 00:26:17;;;;;;;14.50;12.77;;;11.70;99.90;;;;;;4915336;29;20450;-71
2022/05/10 00:28:43;;;;;;;14.67;13.17;;;11.70;99.90;;;;;;4915341;29;20423;-72
2022/05/10 00:31:10;;;;;;;13.40;12.00;;;11.60;99.90;;;;;;4914560;29;20965;-71
2022/05/10 00:33:37;;;;;;;18.20;13.17;;;11.60;99.90;;;;;;4915532;29;20205;-71
2022/05/10 00:36:04;;;;;;;13.50;12.20;;;11.50;99.90;;;;;;4915077;29;20418;-72
2022/05/10 00:38:35;;;;;;;15.00;12.40;;;11.60;99.90;;;;;;4916263;29;20410;-71
2022/05/10 00:41:31;;;;;;;13.57;12.03;;;11.50;99.90;;;;;;4918811;29;20982;-71
2022/05/10 00:44:10;;;;;;;13.57;12.13;;;11.50;99.90;;;;;;4919050;29;20457;-71
2022/05/10 00:46:44;;;;;;;14.67;13.10;;;11.50;99.90;;;;;;4919188;29;20426;-71
2022/05/10 00:49:25;;;;;;;14.90;13.40;;;11.40;99.90;;;;;;4918855;29;20410;-73
2022/05/10 00:52:18;;;;;;;13.80;12.40;;;11.40;99.90;;;;;;4918627;29;20493;-71
2022/05/10 00:55:02;;;;;;;17.00;13.70;;;11.30;99.90;;;;;;4920210;29;20428;-71
2022/05/10 00:58:10;;;;;;;14.70;12.50;;;11.30;99.90;;;;;;4920128;29;20433;-71
2022/05/10 02:33:06;;;;;;;15.70;14.10;;;10.60;99.90;;;;;;5718367;23;20499;-73
2022/05/10 02:34:28;;;;;;;15.83;13.80;;;10.60;99.90;;;;;;4956273;29;20511;-72
2022/05/10 02:36:53;;;;;;;14.67;13.27;;;10.60;99.90;;;;;;4956689;28;20412;-72
2022/05/10 02:39:19;;;;;;;14.93;13.50;;;10.60;99.90;;;;;;4955957;28;20427;-72
2022/05/10 02:41:45;;;;;;;15.57;14.10;;;10.50;99.90;;;;;;4957655;28;20196;-73
2022/05/10 02:44:11;;;;;;;15.27;13.77;;;10.50;99.90;;;;;;4958424;28;20458;-73
2022/05/10 02:46:36;;;;;;;18.67;15.00;;;10.50;99.90;;;;;;4958171;29;20200;-72
2022/05/10 02:49:02;;;;;;;16.17;14.27;;;10.50;99.90;;;;;;4956888;28;20452;-72
2022/05/10 02:51:27;;;;;;;17.00;14.90;;;10.50;99.90;;;;;;4954507;28;20213;-72
2022/05/10 02:53:53;;;;;;;17.10;13.80;;;10.50;99.90;;;;;;4955085;28;20184;-72
2022/05/10 02:56:26;;;;;;;16.07;13.87;;;10.40;99.90;;;;;;4954872;28;20184;-73
2022/05/10 02:59:08;;;;;;;20.90;14.87;;;10.40;99.90;;;;;;4954999;28;20565;-71
2022/05/10 03:01:55;;;;;;;17.73;14.67;;;10.40;99.90;;;;;;4954223;28;20435;-73
2022/05/10 03:04:21;;;;;;;16.10;14.30;;;10.40;99.90;;;;;;4954771;28;20488;-72
2022/05/10 03:06:47;;;;;;;15.03;13.47;;;10.40;99.90;;;;;;4954524;28;20420;-71
2022/05/10 03:09:13;;;;;;;25.30;14.37;;;10.40;99.90;;;;;;4954677;28;20426;-72
2022/05/10 03:11:39;;;;;;;16.07;14.30;;;10.40;99.90;;;;;;4954154;28;20279;-71
2022/05/10 03:14:07;;;;;;;17.30;15.60;;;10.30;99.90;;;;;;4954618;28;20419;-71
2022/05/10 03:16:33;;;;;;;20.63;15.10;;;10.30;99.90;;;;;;4954363;28;20454;-72
2022/05/10 03:18:59;;;;;;;18.60;15.23;;;10.30;99.90;;;;;;4954555;28;21047;-71
2022/05/10 03:21:25;;;;;;;18.00;15.50;;;10.30;99.90;;;;;;4953994;29;20518;-73
2022/05/10 03:23:51;;;;;;;17.03;14.70;;;10.30;99.90;;;;;;4954316;28;20645;-72
2022/05/10 03:26:22;;;;;;;16.20;14.50;;;10.20;99.90;;;;;;4954450;28;20176;-71
2022/05/10 03:28:48;;;;;;;15.80;14.13;;;10.20;99.90;;;;;;4954398;28;20517;-71
2022/05/10 03:31:16;;;;;;;17.23;13.73;;;10.20;99.90;;;;;;4953896;28;20543;-74
2022/05/10 03:33:42;;;;;;;17.10;15.30;;;10.20;99.90;;;;;;4954090;28;20188;-72
2022/05/10 03:36:07;;;;;;;16.97;15.20;;;10.20;99.90;;;;;;4954548;28;20944;-72
2022/05/10 03:38:33;;;;;;;16.97;15.17;;;10.10;99.90;;;;;;4954015;28;20189;-71
2022/05/10 03:40:58;;;;;;;20.57;14.67;;;10.10;99.90;;;;;;4953904;28;20207;-71
2022/05/10 03:43:27;;;;;;;19.97;15.63;;;10.10;99.90;;;;;;4953833;28;20539;-71
2022/05/10 03:45:53;;;;;;;15.93;13.37;;;10.10;99.90;;;;;;4954175;28;20290;-71
2022/05/10 03:48:18;;;;;;;16.03;14.30;;;10.10;99.90;;;;;;4953982;28;20425;-72
2022/05/10 03:50:44;;;;;;;15.43;12.97;;;10.10;99.90;;;;;;4953561;28;20170;-71
2022/05/10 03:53:10;;;;;;;15.80;14.10;;;10.10;99.90;;;;;;4954017;28;20184;-72
2022/05/10 03:55:35;;;;;;;16.43;13.70;;;10.00;99.90;;;;;;4953638;28;20254;-72
2022/05/10 03:58:04;;;;;;;17.33;15.00;;;10.00;99.90;;;;;;4953963;28;20175;-73
2022/05/10 04:00:29;;;;;;;16.93;15.20;;;10.10;99.90;;;;;;4953492;28;20268;-72
2022/05/10 04:02:56;;;;;;;16.33;14.40;;;10.10;99.90;;;;;;4953759;28;20920;-71
2022/05/10 04:05:23;;;;;;;17.10;14.43;;;10.10;99.90;;;;;;4953587;28;20218;-72
2022/05/10 04:07:49;;;;;;;17.83;15.03;;;10.10;99.90;;;;;;4953878;28;20418;-70
2022/05/10 04:10:15;;;;;;;18.20;14.63;;;10.10;99.90;;;;;;4953787;28;20415;-70
2022/05/10 04:12:42;;;;;;;17.93;15.93;;;10.20;99.90;;;;;;4952963;28;20194;-71
2022/05/10 04:15:11;;;;;;;17.20;14.23;;;10.10;99.90;;;;;;4953555;28;20428;-71
2022/05/10 04:17:37;;;;;;;15.77;14.17;;;10.20;99.90;;;;;;4953419;28;20496;-71
2022/05/10 04:20:06;;;;;;;19.37;15.70;;;10.20;99.90;;;;;;4968170;28;20417;-72
2022/05/10 04:22:32;;;;;;;17.90;16.13;;;10.30;99.90;;;;;;4952956;28;20282;-70
2022/05/10 04:24:58;;;;;;;15.90;14.10;;;10.30;99.90;;;;;;4953337;28;20461;-71
2022/05/10 04:27:23;;;;;;;15.80;14.10;;;10.40;99.90;;;;;;4953293;28;20429;-71
2022/05/10 04:29:49;;;;;;;17.67;14.87;;;10.50;99.90;;;;;;4953303;28;20199;-71
2022/05/10 04:32:14;;;;;;;17.10;15.30;;;10.60;99.90;;;;;;4952861;28;20268;-72
2022/05/10 04:34:40;;;;;;;18.43;15.80;;;10.60;99.90;;;;;;4953099;28;20187;-71
2022/05/10 04:37:05;;;;;;;17.13;14.90;;;10.70;99.90;;;;;;4953188;29;20685;-73
2022/05/10 04:41:24;;;;;;;16.40;14.50;;;10.80;99.90;;;;;;4953317;28;20267;-71
2022/05/10 04:42:17;;;;;;;16.87;15.00;;;10.90;99.90;;;;;;4953073;28;20200;-72
2022/05/10 04:44:42;;;;;;;15.17;13.57;;;11.00;99.90;;;;;;4952966;28;20480;-71
2022/05/10 04:47:08;;;;;;;19.10;15.97;;;11.10;99.90;;;;;;4953399;28;20471;-71
2022/05/10 04:49:34;;;;;;;17.60;15.70;;;11.20;99.90;;;;;;4952995;28;20181;-71
2022/05/10 04:51:59;;;;;;;17.60;15.23;;;11.30;99.90;;;;;;4952792;28;20567;-71
2022/05/10 04:54:25;;;;;;;17.63;15.70;;;11.40;99.90;;;;;;4953158;28;20668;-71
2022/05/10 04:56:51;;;;;;;17.40;15.60;;;11.50;99.90;;;;;;4948437;28;20192;-73
2022/05/10 04:59:16;;;;;;;20.30;15.00;;;11.70;99.90;;;;;;4945181;28;20289;-72
2022/05/10 05:01:41;;;;;;;17.50;15.63;;;11.90;99.90;;;;;;4948252;28;20200;-71
2022/05/10 05:04:07;;;;;;;17.10;14.43;;;12.00;99.90;;;;;;4948099;28;20332;-73
2022/05/10 05:06:35;;;;;;;19.50;15.93;;;12.30;99.90;;;;;;4950043;28;20780;-71
2022/05/10 05:09:00;;;;;;;17.13;15.33;;;12.50;99.90;;;;;;4951435;28;20236;-71
2022/05/10 05:11:26;;;;;;;17.80;15.97;;;12.70;99.90;;;;;;4952568;28;20444;-73
2022/05/10 05:13:52;;;;;;;16.20;14.50;;;13.10;99.90;;;;;;4946319;28;20178;-72
2022/05/10 05:16:18;;;;;;;16.20;11.73;;;14.10;99.90;;;;;;4947265;28;20187;-72
2022/05/10 05:18:45;;;;;;;14.30;12.80;;;15.70;99.90;;;;;;4947775;28;20842;-72
2022/05/10 05:21:10;;;;;;;14.67;12.90;;;17.40;99.90;;;;;;4950292;28;20208;-72
2022/05/10 05:23:36;;;;;;;12.93;11.60;;;19.00;99.90;;;;;;4951464;28;20483;-72
2022/05/10 05:26:02;;;;;;;17.40;11.07;;;20.20;99.90;;;;;;4953297;28;20176;-72
2022/05/10 05:28:27;;;;;;;12.20;11.00;;;21.00;99.90;;;;;;4955456;28;20172;-73
2022/05/10 05:30:53;;;;;;;13.17;11.87;;;21.70;99.90;;;;;;4954822;28;20247;-72
2022/05/10 05:33:19;;;;;;;14.13;11.77;;;22.30;99.90;;;;;;4956249;28;20216;-72
2022/05/10 05:35:44;;;;;;;12.97;11.47;;;22.90;99.90;;;;;;4956216;28;20252;-72
2022/05/10 05:38:10;;;;;;;12.67;11.13;;;22.70;99.90;;;;;;4956173;28;20177;-73
2022/05/10 05:40:37;;;;;;;15.70;10.40;;;22.80;99.90;;;;;;4956125;28;20204;-72
2022/05/10 05:43:03;;;;;;;12.70;11.40;;;23.20;99.90;;;;;;4956851;28;20181;-74
2022/05/10 05:45:28;;;;;;;13.30;11.90;;;23.30;99.90;;;;;;4956305;28;20456;-72
2022/05/10 05:47:56;;;;;;;16.90;12.63;;;23.10;99.90;;;;;;4956048;28;20416;-73
2022/05/10 05:50:23;;;;;;;13.17;11.97;;;23.50;99.90;;;;;;4956012;28;20692;-73
2022/05/10 05:52:50;;;;;;;15.13;12.93;;;23.60;99.90;;;;;;4955525;28;20440;-73
2022/05/10 05:55:17;;;;;;;14.53;13.03;;;23.20;99.90;;;;;;4955968;28;20826;-73
2022/05/10 05:57:43;;;;;;;14.87;13.40;;;23.10;99.90;;;;;;4955697;28;20413;-73
2022/05/10 06:00:13;;;;;;;25.90;13.50;;;22.50;99.90;;;;;;4955774;28;20426;-71
2022/05/10 06:02:39;;;;;;;20.23;13.90;;;22.30;99.90;;;;;;4955347;28;20193;-71
2022/05/10 06:05:05;;;;;;;15.17;13.63;;;22.00;99.90;;;;;;4955737;28;20547;-71
2022/05/10 06:07:31;;;;;;;21.20;13.97;;;21.40;99.90;;;;;;4955532;28;20423;-71
2022/05/10 06:09:58;;;;;;;26.77;16.50;;;21.20;99.90;;;;;;4955618;28;20412;-70
2022/05/10 06:12:24;;;;;;;18.07;14.10;;;20.90;99.90;;;;;;4955360;29;20435;-70
2022/05/10 06:14:49;;;;;;;21.60;13.73;;;20.80;99.90;;;;;;4955695;28;20424;-72
2022/05/10 06:17:15;;;;;;;15.73;13.90;;;20.90;99.90;;;;;;4955784;28;20436;-72
2022/05/10 06:19:42;;;;;;;18.07;14.40;;;21.10;99.90;;;;;;4955463;28;20177;-71
2022/05/10 06:22:10;;;;;;;15.30;12.17;;;21.00;99.90;;;;;;4954133;28;20428;-72
2022/05/10 06:24:36;;;;;;;20.63;14.33;;;21.00;99.90;;;;;;4954237;28;20929;-72
2022/05/10 06:27:04;;;;;;;17.30;14.63;;;21.00;99.90;;;;;;4955086;28;20504;-72
2022/05/10 06:29:30;;;;;;;23.33;14.33;;;20.90;99.90;;;;;;4955363;28;20416;-72
2022/05/10 06:31:55;;;;;;;15.20;13.70;;;20.80;99.90;;;;;;4954850;28;20948;-72
2022/05/10 06:34:21;;;;;;;15.10;13.30;;;20.60;99.90;;;;;;4955491;28;20431;-73
2022/05/10 06:36:46;;;;;;;14.80;13.27;;;20.70;99.90;;;;;;4955822;28;20212;-72
2022/05/10 06:39:12;;;;;;;29.30;15.57;;;20.90;99.90;;;;;;4956584;28;20177;-72
2022/05/10 06:41:38;;;;;;;22.77;15.33;;;21.20;99.90;;;;;;4956978;28;20227;-74
2022/05/10 06:44:04;;;;;;;19.00;14.70;;;21.40;99.90;;;;;;4956210;28;20228;-73
2022/05/10 06:46:32;;;;;;;21.47;14.13;;;21.50;99.90;;;;;;4956085;28;20795;-72
2022/05/10 06:48:59;;;;;;;18.27;12.47;;;21.60;99.90;;;;;;4955809;28;20500;-73
2022/05/10 06:51:25;;;;;;;17.33;14.20;;;22.00;99.90;;;;;;4954981;28;20471;-72
2022/05/10 06:53:51;;;;;;;15.20;13.73;;;22.40;99.90;;;;;;4955630;28;20420;-72
2022/05/10 06:56:17;;;;;;;14.83;13.27;;;22.70;99.90;;;;;;4955349;28;20455;-72
2022/05/10 06:58:43;;;;;;;17.77;15.93;;;22.80;99.90;;;;;;4954651;28;20463;-72
2022/05/10 07:01:11;;;;;;;17.30;14.60;;;23.10;99.90;;;;;;4954708;28;20425;-72
2022/05/10 07:03:44;;;;;;;19.43;12.57;;;23.20;99.90;;;;;;4954486;28;20416;-72
2022/05/10 07:06:11;;;;;;;14.30;12.83;;;23.10;99.90;;;;;;4954820;28;20432;-72
2022/05/10 07:08:37;;;;;;;16.80;12.93;;;23.00;99.90;;;;;;4954446;28;20412;-72
2022/05/10 07:11:04;;;;;;;12.87;11.57;;;22.80;99.90;;;;;;4954379;28;20467;-71
2022/05/10 07:13:31;;;;;;;14.27;12.77;;;23.10;99.90;;;;;;4954254;28;20232;-73
2022/05/10 07:15:57;;;;;;;21.70;12.67;;;23.20;99.90;;;;;;4954718;28;20495;-72
2022/05/10 07:18:22;;;;;;;19.23;13.40;;;23.10;99.90;;;;;;4954440;28;20427;-72
2022/05/10 07:20:50;;;;;;;14.60;13.00;;;23.20;99.90;;;;;;4954078;28;20416;-72
2022/05/10 07:23:24;;;;;;;13.93;12.47;;;23.30;99.90;;;;;;4954400;28;20542;-72
2022/05/10 07:25:50;;;;;;;19.83;12.80;;;23.40;99.90;;;;;;4954336;28;20458;-72
2022/05/10 07:28:16;;;;;;;20.73;12.90;;;23.80;99.90;;;;;;4954205;28;20936;-72
2022/05/10 07:30:42;;;;;;;13.33;11.70;;;24.40;99.90;;;;;;4953805;28;20413;-73
2022/05/10 07:33:08;;;;;;;15.03;11.83;;;24.50;99.90;;;;;;4954309;28;20258;-72
2022/05/10 07:38:19;;;;;;;16.97;11.90;;;24.50;99.90;;;;;;4954521;29;20936;-72
2022/05/10 07:40:47;;;;;;;13.20;10.53;;;24.80;99.90;;;;;;4953973;28;21039;-72
2022/05/10 07:43:14;;;;;;;14.60;10.13;;;25.10;99.90;;;;;;4954320;28;20444;-71
2022/05/10 07:45:41;;;;;;;14.07;10.67;;;25.60;99.90;;;;;;4953760;28;20882;-72
2022/05/10 07:48:07;;;;;;;12.37;10.63;;;25.90;99.90;;;;;;4953237;28;20421;-73
2022/05/10 07:50:33;;;;;;;12.13;10.90;;;26.20;99.90;;;;;;4953501;28;20413;-70
2022/05/10 07:53:00;;;;;;;20.20;10.27;;;26.30;99.90;;;;;;4953864;28;20199;-71
2022/05/10 07:55:26;;;;;;;15.27;10.33;;;26.80;99.90;;;;;;4953809;28;20416;-72
2022/05/10 07:57:51;;;;;;;12.40;10.50;;;27.00;99.90;;;;;;4953726;28;20428;-70
2022/05/10 08:00:17;;;;;;;18.07;10.70;;;26.80;99.90;;;;;;4953673;28;20976;-70
2022/05/10 08:02:44;;;;;;;10.73;9.67;;;27.10;99.90;;;;;;4953289;28;20204;-71
2022/05/10 08:05:24;;;;;;;12.83;9.03;;;26.90;99.90;;;;;;4953686;28;20205;-69
2022/05/10 08:07:50;;;;;;;10.10;9.20;;;26.90;99.90;;;;;;4953612;28;20906;-70
2022/05/10 08:10:16;;;;;;;10.83;7.83;;;26.80;99.90;;;;;;4953720;28;20466;-71
2022/05/10 08:12:42;;;;;;;15.47;8.90;;;27.00;99.90;;;;;;4954192;29;20471;-71
2022/05/10 08:15:09;;;;;;;14.90;9.70;;;27.20;99.90;;;;;;4953658;28;20177;-70
2022/05/10 08:17:35;;;;;;;9.23;8.20;;;26.90;99.90;;;;;;4953353;28;20176;-70
2022/05/10 08:20:01;;;;;;;9.23;8.40;;;27.10;99.90;;;;;;4953563;28;20832;-70
2022/05/10 08:22:26;;;;;;;9.00;8.10;;;27.50;99.90;;;;;;4953093;28;20444;-71
2022/05/10 08:24:52;;;;;;;8.50;7.80;;;27.80;99.90;;;;;;4953494;28;20212;-70
2022/05/10 08:27:17;;;;;;;12.30;8.73;;;27.80;99.90;;;;;;4953323;28;20542;-70
2022/05/10 08:29:43;;;;;;;20.07;8.80;;;28.20;99.90;;;;;;4953698;28;20189;-70
2022/05/10 08:32:09;;;;;;;8.53;7.63;;;28.50;99.90;;;;;;4952868;28;20220;-71
2022/05/10 08:34:36;;;;;;;7.30;6.70;;;28.70;99.90;;;;;;4953392;28;20649;-71
2022/05/10 08:37:02;;;;;;;7.80;7.03;;;29.10;99.90;;;;;;4953169;28;20177;-71
2022/05/10 08:39:28;;;;;;;7.27;6.50;;;29.30;99.90;;;;;;4953258;28;20440;-71
2022/05/10 08:41:59;;;;;;;12.07;7.50;;;28.90;99.90;;;;;;4952776;28;20467;-71
2022/05/10 08:44:27;;;;;;;9.53;8.27;;;29.20;99.90;;;;;;4953133;29;20211;-70
2022/05/10 08:46:58;;;;;;;7.70;7.00;;;29.50;99.90;;;;;;4953115;29;20444;-70
2022/05/10 08:49:39;;;;;;;8.47;7.63;;;29.50;99.90;;;;;;4953316;28;20440;-70
2022/05/10 08:52:06;;;;;;;7.23;6.63;;;29.50;99.90;;;;;;4952933;28;20440;-70
2022/05/10 08:54:34;;;;;;;12.93;7.00;;;29.70;99.90;;;;;;4953051;28;20979;-70
2022/05/10 08:57:08;;;;;;;7.90;7.17;;;29.60;99.90;;;;;;4953035;28;20424;-70
2022/05/10 08:59:40;;;;;;;7.10;6.20;;;29.30;99.90;;;;;;4954365;28;20449;-72
2022/05/10 09:02:17;;;;;;;5.73;5.33;;;29.50;99.90;;;;;;4956705;28;20933;-72
2022/05/10 09:05:04;;;;;;;8.00;5.57;;;30.00;99.90;;;;;;4956805;28;20474;-72
2022/05/10 09:07:45;;;;;;;5.80;5.40;;;30.40;99.90;;;;;;4956735;28;20499;-72
2022/05/10 09:10:22;;;;;;;7.17;6.57;;;30.60;99.90;;;;;;4956914;28;20415;-72
2022/05/10 09:13:07;;;;;;;8.83;6.53;;;30.80;99.90;;;;;;4971072;28;20443;-71
2022/05/10 09:15:35;;;;;;;6.87;6.40;;;30.70;99.90;;;;;;4956590;29;20416;-70
2022/05/10 09:18:14;;;;;;;7.60;6.90;;;29.70;99.90;;;;;;4956617;28;20432;-71
2022/05/10 09:20:52;;;;;;;6.63;5.80;;;28.80;99.90;;;;;;4956487;28;20510;-70
2022/05/10 09:23:34;;;;;;;7.50;7.03;;;27.60;99.90;;;;;;4956605;28;20420;-70
2022/05/10 09:26:00;;;;;;;7.03;6.53;;;27.10;99.90;;;;;;4956688;28;20471;-71
2022/05/10 09:28:31;;;;;;;5.73;5.30;;;26.60;99.90;;;;;;4956332;28;20419;-70
2022/05/10 09:37:32;;;;;;;5.93;5.50;;;25.10;99.90;;;;;;4956307;29;20460;-71
2022/05/10 09:39:57;;;;;;;7.20;5.73;;;24.90;99.90;;;;;;4956275;28;20428;-70
2022/05/10 09:42:31;;;;;;;5.77;5.37;;;24.80;99.90;;;;;;4956141;28;20447;-71
2022/05/10 09:45:13;;;;;;;5.93;5.43;;;24.80;99.90;;;;;;4955983;28;20216;-71
2022/05/10 09:47:52;;;;;;;6.57;6.07;;;24.80;99.90;;;;;;4956131;28;20416;-71
2022/05/10 09:50:20;;;;;;;7.83;6.27;;;25.00;99.90;;;;;;4956225;28;20412;-70
2022/05/10 09:52:46;;;;;;;6.60;6.00;;;25.00;99.90;;;;;;4955599;28;20483;-70
2022/05/10 09:55:28;;;;;;;6.50;6.00;;;25.00;99.90;;;;;;4955908;29;20420;-71
2022/05/10 09:57:57;;;;;;;5.97;5.60;;;26.10;99.90;;;;;;4956412;28;20424;-71
2022/05/10 10:00:40;;;;;;;5.43;5.03;;;27.20;99.90;;;;;;4955877;28;20447;-69
2022/05/10 10:03:06;;;;;;;5.97;5.47;;;28.30;99.90;;;;;;4955748;28;20425;-70
2022/05/10 10:05:33;;;;;;;5.47;4.97;;;29.00;99.90;;;;;;4955823;28;20632;-70
2022/05/10 10:07:59;;;;;;;5.67;4.70;;;28.90;99.90;;;;;;4955796;28;20181;-70
2022/05/10 10:10:36;;;;;;;5.87;5.03;;;28.50;99.90;;;;;;4955260;28;20829;-69
2022/05/10 10:13:28;;;;;;;5.70;5.20;;;28.60;99.90;;;;;;4955389;28;20184;-71
2022/05/10 10:15:55;;;;;;;6.30;5.00;;;28.70;99.90;;;;;;4955577;29;20452;-71
2022/05/10 10:18:47;;;;;;;5.77;5.30;;;28.20;99.90;;;;;;4955603;28;20455;-71
2022/05/10 10:21:19;;;;;;;5.57;5.07;;;27.40;99.90;;;;;;4955194;29;20853;-70
2022/05/10 10:23:53;;;;;;;9.20;5.83;;;27.10;99.90;;;;;;4955426;28;20483;-71
2022/05/10 10:26:40;;;;;;;6.77;6.17;;;26.90;99.90;;;;;;4955625;28;20408;-70
2022/05/10 10:29:16;;;;;;;5.03;4.73;;;26.80;99.90;;;;;;4955483;28;20995;-69
2022/05/10 10:31:47;;;;;;;6.07;5.47;;;26.60;99.90;;;;;;4954841;28;20518;-70
2022/05/10 10:34:42;;;;;;;8.93;5.23;;;26.60;99.90;;;;;;4955380;28;20421;-73
2022/05/10 10:37:14;;;;;;;5.63;5.23;;;26.90;99.90;;;;;;4955345;29;20878;-72
2022/05/10 10:40:08;;;;;;;6.10;5.60;;;27.50;99.90;;;;;;4955233;28;20562;-70
2022/05/10 10:42:39;;;;;;;6.30;5.70;;;27.60;99.90;;;;;;4954769;28;20440;-70
2022/05/10 10:45:12;;;;;;;7.10;6.60;;;27.00;99.90;;;;;;4955101;28;20460;-71
2022/05/10 10:47:42;;;;;;;6.53;5.90;;;27.00;99.90;;;;;;4954992;28;20421;-70
2022/05/10 10:50:26;;;;;;;5.80;5.40;;;27.60;99.90;;;;;;4955092;28;20425;-71
2022/05/10 10:52:54;;;;;;;5.50;5.13;;;27.80;99.90;;;;;;4954707;28;20436;-70
2022/05/10 10:55:23;;;;;;;5.97;5.50;;;27.70;99.90;;;;;;4955184;28;20800;-71
2022/05/10 10:57:54;;;;;;;6.80;6.20;;;27.20;99.90;;;;;;4954695;28;20515;-72
2022/05/10 11:00:28;;;;;;;5.70;5.20;;;27.10;99.90;;;;;;4954843;28;20880;-71
2022/05/10 11:02:53;;;;;;;5.60;5.20;;;27.30;99.90;;;;;;4954494;28;20458;-70
2022/05/10 11:05:37;;;;;;;5.33;4.70;;;27.30;99.90;;;;;;4953366;29;20460;-71
2022/05/10 11:08:32;;;;;;;5.40;5.00;;;27.00;99.90;;;;;;4954643;28;20176;-71
2022/05/10 11:11:07;;;;;;;5.23;4.83;;;26.90;99.90;;;;;;4954548;28;20417;-70
2022/05/10 11:13:42;;;;;;;7.43;5.43;;;27.50;99.90;;;;;;4953116;29;20426;-73
2022/05/10 11:16:34;;;;;;;8.63;5.33;;;28.00;99.90;;;;;;4954597;29;20452;-74
2022/05/10 11:19:37;;;;;;;5.70;5.30;;;27.90;99.90;;;;;;4954526;28;20511;-73
2022/05/10 11:22:28;;;;;;;4.83;4.33;;;27.60;99.90;;;;;;4954053;28;20436;-74
2022/05/10 11:25:22;;;;;;;5.13;4.70;;;27.70;99.90;;;;;;4953922;28;20459;-73
2022/05/10 11:28:13;;;;;;;5.13;4.43;;;28.00;99.90;;;;;;4954346;28;20463;-73
2022/05/10 11:31:01;;;;;;;5.37;4.97;;;28.30;99.30;;;;;;4953799;28;20409;-70
2022/05/10 11:33:45;;;;;;;5.37;4.83;;;28.10;99.10;;;;;;4953968;29;20413;-70
2022/05/10 11:36:30;;;;;;;5.83;4.30;;;27.80;98.70;;;;;;4954220;28;20782;-71
2022/05/10 11:39:16;;;;;;;4.60;4.30;;;27.50;99.90;;;;;;4953848;29;20447;-70
2022/05/10 11:41:50;;;;;;;5.90;5.37;;;27.20;99.50;;;;;;4953723;28;20428;-70
2022/05/10 11:44:31;;;;;;;5.40;5.00;;;27.00;98.90;;;;;;4953874;28;20452;-70
2022/05/10 11:47:24;;;;;;;5.73;5.23;;;26.60;99.90;;;;;;4954012;28;20559;-70
2022/05/10 11:50:21;;;;;;;7.50;4.60;;;26.30;99.90;;;;;;4953767;28;20747;-70
2022/05/10 11:52:49;;;;;;;4.17;3.87;;;26.40;99.90;;;;;;4952241;28;20523;-71
2022/05/10 11:55:36;;;;;;;5.80;4.50;;;26.60;99.90;;;;;;4953769;29;20424;-69
2022/05/10 11:58:07;;;;;;;4.17;3.97;;;26.50;98.70;;;;;;4954151;28;20909;-69
2022/05/10 12:00:32;;;;;;;4.20;4.00;;;26.50;97.30;;;;;;4953315;28;20487;-66
2022/05/10 12:03:09;;;;;;;4.27;3.90;;;26.50;97.40;;;;;;4953594;28;20797;-68
2022/05/10 12:05:36;;;;;;;8.17;3.80;;;26.60;97.00;;;;;;4953443;28;20227;-70
2022/05/10 12:08:27;;;;;;;5.87;3.70;;;26.80;96.30;;;;;;4953686;28;20495;-70
2022/05/10 12:10:53;;;;;;;4.63;4.20;;;26.90;97.60;;;;;;4953002;29;20424;-70
2022/05/10 12:21:19;;;;;;;4.40;4.10;;;27.00;98.30;;;;;;4953501;28;20425;-70
2022/05/10 12:22:07;;;;;;;3.93;3.50;;;26.70;96.80;;;;;;4953308;29;20925;-70
2022/05/10 12:24:44;;;;;;;4.10;3.90;;;26.70;97.40;;;;;;4953239;28;20466;-69
2022/05/10 12:27:10;;;;;;;4.50;4.20;;;26.80;96.80;;;;;;4951997;29;20428;-70
2022/05/10 12:29:38;;;;;;;4.77;4.30;;;26.70;95.50;;;;;;4953207;29;20474;-70
2022/05/10 12:32:30;;;;;;;4.40;4.10;;;26.70;97.30;;;;;;4952987;28;20223;-70
2022/05/10 12:34:57;;;;;;;3.63;3.40;;;26.70;95.80;;;;;;4953884;28;21059;-70
2022/05/10 12:37:26;;;;;;;4.47;4.17;;;26.80;96.30;;;;;;4953095;28;20421;-70
2022/05/10 12:40:31;;;;;;;5.63;4.40;;;26.80;95.40;;;;;;4953170;28;20417;-70
2022/05/10 12:43:02;;;;;;;5.00;4.17;;;27.00;96.50;;;;;;4932850;29;20455;-70
2022/05/10 12:45:47;;;;;;;7.53;4.03;;;27.10;97.20;;;;;;4953068;28;20555;-70
2022/05/10 12:48:44;;;;;;;4.27;3.87;;;27.10;98.30;;;;;;4953003;29;20782;-70
2022/05/10 12:51:15;;;;;;;5.37;4.00;;;27.20;96.90;;;;;;4952849;28;20428;-71
2022/05/10 12:54:07;;;;;;;4.10;3.80;;;27.40;96.60;;;;;;4952800;28;20463;-70
2022/05/10 12:56:48;;;;;;;6.13;4.73;;;27.50;96.90;;;;;;4953096;28;20404;-70
2022/05/10 12:59:19;;;;;;;4.00;3.70;;;27.30;96.20;;;;;;4957337;28;20408;-71
2022/05/10 13:01:46;;;;;;;3.97;3.67;;;27.10;96.00;;;;;;4956148;29;20523;-70
2022/05/10 13:04:16;;;;;;;3.90;3.70;;;26.90;95.60;;;;;;4957623;28;20407;-70
2022/05/10 13:07:07;;;;;;;4.50;4.20;;;26.90;95.60;;;;;;4957092;29;20427;-70
2022/05/10 13:09:38;;;;;;;3.87;3.23;;;27.10;95.90;;;;;;4955537;29;20527;-70
2022/05/10 13:12:35;;;;;;;14.17;4.23;;;27.10;97.30;;;;;;4952926;28;20432;-70
2022/05/10 13:15:13;;;;;;;4.57;4.17;;;27.00;97.70;;;;;;4953154;28;20413;-69
2022/05/10 13:17:43;;;;;;;5.13;3.83;;;26.80;98.20;;;;;;4952841;29;20423;-70
2022/05/10 13:20:12;;;;;;;4.10;3.80;;;26.60;97.60;;;;;;4953092;29;20419;-68
2022/05/10 13:22:46;;;;;;;5.10;4.40;;;26.70;97.90;;;;;;4952357;28;20436;-70
2022/05/10 13:25:12;;;;;;;15.20;5.37;;;26.60;98.20;;;;;;4952748;28;20549;-69
2022/05/10 13:27:41;;;;;;;4.57;4.17;;;26.70;99.60;;;;;;4952639;28;20503;-70
2022/05/10 13:30:09;;;;;;;7.00;4.20;;;26.60;99.70;;;;;;4953081;28;20184;-70
2022/05/10 13:32:38;;;;;;;4.90;4.50;;;26.60;99.60;;;;;;4952269;28;20696;-69
2022/05/10 13:35:06;;;;;;;8.10;5.00;;;26.50;98.80;;;;;;4952750;28;20464;-69
2022/05/10 13:37:35;;;;;;;5.90;5.00;;;26.30;98.70;;;;;;4952831;28;20412;-69
2022/05/10 13:40:12;;;;;;;5.17;4.77;;;26.00;98.30;;;;;;4952600;28;20413;-70
2022/05/10 13:42:45;;;;;;;5.03;4.63;;;26.00;98.60;;;;;;4952222;28;20431;-69
2022/05/10 13:45:15;;;;;;;4.50;4.20;;;26.10;99.60;;;;;;4952816;28;20459;-70
2022/05/10 13:47:42;;;;;;;4.27;4.03;;;26.30;98.20;;;;;;4955209;28;20448;-70
2022/05/10 13:50:15;;;;;;;6.63;4.30;;;26.30;99.00;;;;;;4956153;28;20421;-69
2022/05/10 13:52:48;;;;;;;6.33;4.20;;;26.40;98.40;;;;;;4955792;28;20439;-72
2022/05/10 13:55:19;;;;;;;8.43;5.10;;;26.50;98.20;;;;;;4955992;28;20509;-72
2022/05/10 13:57:56;;;;;;;5.47;4.97;;;26.60;99.90;;;;;;4955855;28;20953;-71
2022/05/10 14:00:34;;;;;;;5.57;4.97;;;26.60;98.90;;;;;;4955931;28;20412;-71
2022/05/10 14:03:00;;;;;;;5.30;4.80;;;26.50;99.90;;;;;;4955746;28;20937;-72
2022/05/10 14:05:29;;;;;;;5.90;5.30;;;26.50;99.10;;;;;;4955590;28;21056;-71
2022/05/10 14:08:05;;;;;;;6.60;5.00;;;26.50;99.30;;;;;;4955912;28;20785;-72
2022/05/10 14:10:34;;;;;;;5.00;4.30;;;26.40;99.20;;;;;;4955482;28;20419;-72
2022/05/10 14:13:04;;;;;;;15.90;7.43;;;26.40;99.30;;;;;;4955691;28;20515;-72
2022/05/10 14:15:43;;;;;;;4.80;4.50;;;26.40;99.30;;;;;;4955264;28;20421;-69
2022/05/10 14:18:35;;;;;;;6.03;5.27;;;26.40;98.40;;;;;;4955602;28;20408;-71
2022/05/10 14:21:25;;;;;;;5.07;4.67;;;26.50;99.10;;;;;;4955424;28;20444;-72
2022/05/10 14:23:55;;;;;;;5.83;4.87;;;26.50;98.60;;;;;;4955103;29;20503;-72
2022/05/10 14:26:40;;;;;;;5.20;4.80;;;26.30;97.80;;;;;;4955343;28;20460;-71
2022/05/10 14:29:13;;;;;;;5.40;4.90;;;26.20;98.50;;;;;;4955373;28;20428;-73
2022/05/10 14:31:40;;;;;;;5.70;5.30;;;26.20;98.10;;;;;;4954684;29;20488;-72
2022/05/10 14:34:07;;;;;;;4.97;4.57;;;26.40;98.30;;;;;;4955285;28;20425;-72
2022/05/10 14:36:38;;;;;;;4.87;4.47;;;26.50;99.50;;;;;;4955088;28;20416;-72
2022/05/10 14:39:09;;;;;;;5.40;5.03;;;26.60;98.80;;;;;;4955222;28;20495;-72
2022/05/10 14:41:41;;;;;;;5.13;4.63;;;26.60;98.60;;;;;;4953401;29;20437;-71
2022/05/10 14:44:12;;;;;;;5.17;4.77;;;26.60;99.00;;;;;;4955046;28;20793;-72